createdAt,value
2019-03-24T00:00:48.971Z,18.73
2019-03-24T00:03:22.756Z,17.67
2019-03-24T00:05:54.631Z,18.10
2019-03-24T00:08:26.747Z,19.75
2019-03-24T00:10:58.726Z,18.87
2019-03-24T00:13:30.724Z,18.37
2019-03-24T00:16:02.740Z,19.05
2019-03-24T00:18:34.704Z,18.48
2019-03-24T00:21:06.705Z,18.70
2019-03-24T00:23:39.060Z,17.80
2019-03-24T00:26:13.499Z,18.62
2019-03-24T00:28:45.607Z,17.25
2019-03-24T00:31:19.124Z,17.57
2019-03-24T00:33:51.067Z,17.20
2019-03-24T00:36:22.935Z,19.07
2019-03-24T00:38:54.944Z,18.40
2019-03-24T00:41:27.016Z,18.32
2019-03-24T00:43:59.058Z,18.95
2019-03-24T00:46:30.943Z,19.20
2019-03-24T00:49:03.145Z,18.02
2019-03-24T00:51:35.057Z,18.07
2019-03-24T00:54:07.117Z,19.52
2019-03-24T00:56:39.196Z,17.40
2019-03-24T00:59:11.226Z,17.48
2019-03-24T01:01:43.320Z,17.95
2019-03-24T01:04:15.220Z,18.00
2019-03-24T01:06:47.092Z,18.35
2019-03-24T01:09:20.588Z,17.73
2019-03-24T01:11:53.752Z,18.07
2019-03-24T01:14:25.289Z,17.60
2019-03-24T01:16:57.237Z,18.05
2019-03-24T01:19:29.203Z,17.00
2019-03-24T01:22:01.212Z,17.67
2019-03-24T01:24:33.125Z,16.75
2019-03-24T01:27:05.383Z,17.45
2019-03-24T01:29:37.268Z,17.67
2019-03-24T01:32:09.291Z,18.32
2019-03-24T01:34:41.203Z,17.50
2019-03-24T01:37:13.195Z,16.93
2019-03-24T01:39:45.030Z,18.50
2019-03-24T01:42:17.390Z,17.62
2019-03-24T01:44:49.307Z,19.15
2019-03-24T01:47:21.162Z,16.42
2019-03-24T01:49:53.069Z,17.57
2019-03-24T01:52:25.037Z,17.27
2019-03-24T01:54:56.946Z,18.10
2019-03-24T01:57:29.003Z,17.60
2019-03-24T02:00:00.867Z,17.40
2019-03-24T02:02:32.872Z,17.57
2019-03-24T02:05:05.376Z,20.52
2019-03-24T02:07:37.443Z,19.10
2019-03-24T02:10:10.614Z,18.67
2019-03-24T02:12:42.528Z,16.90
2019-03-24T02:15:16.871Z,17.00
2019-03-24T02:17:48.931Z,16.90
2019-03-24T02:20:20.867Z,17.50
2019-03-24T02:22:52.947Z,17.23
2019-03-24T02:25:24.813Z,18.02
2019-03-24T02:27:59.682Z,16.42
2019-03-24T02:30:31.925Z,17.62
2019-03-24T02:33:05.829Z,17.48
2019-03-24T02:35:37.739Z,16.50
2019-03-24T02:38:09.604Z,17.87
2019-03-24T02:40:41.535Z,18.37
2019-03-24T02:43:13.455Z,17.30
2019-03-24T02:45:45.302Z,18.45
2019-03-24T02:48:17.587Z,16.65
2019-03-24T02:50:49.942Z,18.10
2019-03-24T02:53:22.220Z,17.42
2019-03-24T02:55:54.142Z,16.32
2019-03-24T02:58:26.038Z,15.75
2019-03-24T03:00:57.880Z,14.65
2019-03-24T03:03:30.356Z,15.05
2019-03-24T03:06:02.321Z,15.83
2019-03-24T03:08:34.337Z,14.35
2019-03-24T03:11:06.311Z,14.50
2019-03-24T03:13:38.228Z,14.65
2019-03-24T03:16:10.681Z,15.75
2019-03-24T03:18:42.688Z,14.23
2019-03-24T03:21:14.624Z,14.65
2019-03-24T03:23:46.488Z,14.83
2019-03-24T03:26:18.474Z,15.45
2019-03-24T03:28:50.412Z,14.50
2019-03-24T03:31:22.367Z,14.95
2019-03-24T03:33:54.504Z,14.75
2019-03-24T03:36:26.372Z,13.88
2019-03-24T03:38:59.246Z,14.70
2019-03-24T03:41:31.203Z,15.20
2019-03-24T03:44:05.111Z,15.05
2019-03-24T03:46:37.104Z,14.25
2019-03-24T03:49:08.958Z,14.28
2019-03-24T03:51:40.857Z,14.58
2019-03-24T03:54:12.761Z,13.80
2019-03-24T03:56:44.670Z,13.88
2019-03-24T03:59:16.595Z,13.78
2019-03-24T04:01:48.488Z,14.38
2019-03-24T04:04:20.330Z,13.58
2019-03-24T04:06:52.268Z,13.83
2019-03-24T04:09:24.214Z,14.33
2019-03-24T04:11:56.989Z,12.78
2019-03-24T04:14:28.946Z,13.20
2019-03-24T04:17:07.655Z,14.30
2019-03-24T04:19:35.516Z,13.35
2019-03-24T04:22:07.774Z,13.28
2019-03-24T04:24:39.733Z,13.88
2019-03-24T04:27:11.901Z,13.25
2019-03-24T04:29:45.144Z,13.20
2019-03-24T04:32:17.436Z,14.23
2019-03-24T04:34:49.324Z,14.60
2019-03-24T04:37:23.083Z,13.83
2019-03-24T04:39:56.182Z,14.38
2019-03-24T04:42:28.082Z,14.15
2019-03-24T04:45:00.912Z,14.38
2019-03-24T04:47:33.173Z,13.40
2019-03-24T04:50:06.152Z,14.80
2019-03-24T04:52:38.332Z,12.98
2019-03-24T04:55:10.492Z,13.45
2019-03-24T04:57:42.415Z,14.35
2019-03-24T05:00:15.733Z,13.53
2019-03-24T05:02:47.630Z,12.88
2019-03-24T05:05:19.489Z,14.38
2019-03-24T05:07:52.590Z,14.33
2019-03-24T05:10:28.722Z,13.40
2019-03-24T05:13:00.587Z,13.90
2019-03-24T05:15:32.655Z,14.30
2019-03-24T05:18:04.706Z,14.47
2019-03-24T05:20:36.603Z,14.20
2019-03-24T05:23:08.455Z,13.78
2019-03-24T05:25:40.403Z,14.13
2019-03-24T05:28:13.755Z,13.85
2019-03-24T05:30:45.831Z,14.05
2019-03-24T05:33:17.696Z,12.65
2019-03-24T05:35:49.598Z,12.75
2019-03-24T05:38:23.167Z,13.13
2019-03-24T05:40:55.869Z,12.65
2019-03-24T05:43:27.756Z,12.75
2019-03-24T05:45:59.710Z,12.28
2019-03-24T05:48:31.935Z,12.80
2019-03-24T05:51:03.852Z,11.93
2019-03-24T05:53:35.796Z,12.45
2019-03-24T05:56:07.695Z,13.35
2019-03-24T05:58:40.067Z,12.80
2019-03-24T06:01:12.185Z,13.03
2019-03-24T06:03:44.091Z,12.58
2019-03-24T06:06:17.227Z,12.43
2019-03-24T06:08:51.519Z,11.83
2019-03-24T06:11:24.925Z,11.28
2019-03-24T06:13:56.950Z,10.40
2019-03-24T06:16:28.952Z,12.45
2019-03-24T06:19:00.939Z,11.68
2019-03-24T06:21:32.892Z,11.40
2019-03-24T06:24:04.927Z,12.58
2019-03-24T06:26:36.854Z,11.65
2019-03-24T06:29:08.711Z,11.78
2019-03-24T06:31:40.602Z,12.37
2019-03-24T06:34:12.632Z,11.75
2019-03-24T06:36:44.550Z,11.65
2019-03-24T06:39:16.445Z,12.25
2019-03-24T06:41:48.322Z,11.50
2019-03-24T06:44:21.567Z,10.93
2019-03-24T06:46:53.480Z,11.12
2019-03-24T06:49:25.481Z,10.68
2019-03-24T06:51:57.379Z,11.03
2019-03-24T06:54:29.273Z,10.00
2019-03-24T06:57:01.643Z,10.68
2019-03-24T06:59:33.581Z,10.88
2019-03-24T07:02:05.464Z,11.40
2019-03-24T07:04:37.422Z,11.12
2019-03-24T07:07:09.525Z,11.10
2019-03-24T07:09:41.437Z,10.38
2019-03-24T07:12:13.336Z,10.68
2019-03-24T07:14:45.405Z,10.38
2019-03-24T07:17:18.308Z,10.40
2019-03-24T07:19:50.200Z,9.75
2019-03-24T07:22:22.126Z,10.03
2019-03-24T07:24:54.553Z,10.40
2019-03-24T07:27:29.244Z,10.38
2019-03-24T07:30:01.217Z,9.88
2019-03-24T07:32:34.713Z,9.60
2019-03-24T07:35:06.918Z,9.50
2019-03-24T07:37:38.972Z,9.55
2019-03-24T07:40:11.949Z,9.65
2019-03-24T07:42:43.867Z,9.78
2019-03-24T07:45:18.772Z,9.63
2019-03-24T07:47:50.717Z,9.83
2019-03-24T07:50:22.714Z,9.83
2019-03-24T07:52:54.661Z,10.30
2019-03-24T07:55:26.698Z,9.88
2019-03-24T07:57:59.056Z,9.00
2019-03-24T08:00:35.938Z,8.73
2019-03-24T08:03:07.913Z,8.33
2019-03-24T08:05:39.917Z,8.98
2019-03-24T08:08:11.815Z,8.83
2019-03-24T08:10:43.733Z,8.95
2019-03-24T08:13:16.900Z,7.85
2019-03-24T08:15:50.008Z,8.93
2019-03-24T08:18:29.583Z,12.28
2019-03-24T08:20:55.683Z,22.10
2019-03-24T08:23:27.636Z,24.02
2019-03-24T08:26:04.844Z,22.42
2019-03-24T08:28:36.755Z,20.25
2019-03-24T08:31:11.307Z,23.22
2019-03-24T08:33:43.219Z,42.30
2019-03-24T08:36:18.566Z,40.63
2019-03-24T08:38:50.801Z,25.88
2019-03-24T08:41:24.221Z,22.48
2019-03-24T08:43:56.233Z,24.63
2019-03-24T08:46:28.253Z,23.20
2019-03-24T08:49:00.245Z,22.22
2019-03-24T08:51:32.155Z,21.25
2019-03-24T08:54:04.103Z,16.55
2019-03-24T08:56:35.961Z,14.15
2019-03-24T08:59:07.969Z,15.08
2019-03-24T09:01:39.880Z,13.38
2019-03-24T09:04:11.783Z,13.62
2019-03-24T09:06:43.664Z,14.18
2019-03-24T09:09:15.645Z,15.08
2019-03-24T09:11:48.900Z,15.15
2019-03-24T09:14:21.038Z,19.42
2019-03-24T09:16:53.038Z,17.37
2019-03-24T09:19:24.971Z,19.95
2019-03-24T09:21:59.448Z,23.95
2019-03-24T09:24:31.649Z,20.60
2019-03-24T09:27:03.637Z,18.40
2019-03-24T09:29:37.025Z,18.80
2019-03-24T09:32:09.018Z,16.00
2019-03-24T09:34:43.175Z,16.25
2019-03-24T09:37:16.309Z,14.07
2019-03-24T09:39:48.296Z,14.98
2019-03-24T09:42:20.267Z,13.65
2019-03-24T09:44:52.383Z,13.15
2019-03-24T09:47:24.380Z,12.47
2019-03-24T09:49:56.367Z,11.53
2019-03-24T09:52:28.225Z,11.12
2019-03-24T09:55:00.340Z,7.85
2019-03-24T09:57:32.284Z,6.72
2019-03-24T10:00:04.601Z,4.45
2019-03-24T10:02:36.537Z,4.95
2019-03-24T10:05:08.747Z,4.50
2019-03-24T10:07:40.685Z,4.40
2019-03-24T10:10:13.025Z,4.70
2019-03-24T10:12:44.923Z,4.78
2019-03-24T10:15:20.071Z,4.78
2019-03-24T10:17:51.996Z,3.60
2019-03-24T10:20:25.027Z,4.37
2019-03-24T10:22:56.874Z,3.85
2019-03-24T10:25:31.895Z,4.47
2019-03-24T10:28:03.883Z,4.28
2019-03-24T10:30:35.800Z,4.12
2019-03-24T10:33:07.706Z,4.28
2019-03-24T10:35:39.857Z,4.12
2019-03-24T10:38:11.721Z,4.45
2019-03-24T10:40:43.617Z,4.22
2019-03-24T10:43:15.555Z,4.28
2019-03-24T10:45:47.909Z,3.90
2019-03-24T10:48:20.017Z,3.87
2019-03-24T10:50:51.891Z,4.05
2019-03-24T10:53:23.807Z,3.90
2019-03-24T10:55:55.753Z,3.42
2019-03-24T10:58:27.625Z,3.72
2019-03-24T11:00:59.477Z,3.75
2019-03-24T11:03:31.479Z,3.35
2019-03-24T11:06:04.138Z,3.27
2019-03-24T11:08:36.036Z,3.77
2019-03-24T11:11:07.880Z,3.77
2019-03-24T11:13:39.837Z,4.12
2019-03-24T11:16:11.749Z,3.60
2019-03-24T11:18:45.099Z,3.80
2019-03-24T11:21:16.986Z,3.62
2019-03-24T11:23:48.848Z,4.15
2019-03-24T11:26:20.909Z,3.80
2019-03-24T11:28:52.790Z,3.85
2019-03-24T11:31:24.811Z,3.22
2019-03-24T11:33:56.721Z,5.05
2019-03-24T11:36:28.571Z,3.80
2019-03-24T11:39:00.437Z,3.92
2019-03-24T11:41:33.981Z,3.50
2019-03-24T11:44:07.427Z,3.75
2019-03-24T11:46:39.286Z,4.17
2019-03-24T11:49:20.792Z,3.30
2019-03-24T11:51:52.825Z,3.50
2019-03-24T11:54:24.700Z,3.58
2019-03-24T11:56:56.604Z,3.08
2019-03-24T11:59:28.466Z,3.22
2019-03-24T12:02:00.770Z,3.22
2019-03-24T12:04:33.944Z,3.85
2019-03-24T12:07:06.856Z,4.22
2019-03-24T12:09:44.569Z,3.10
2019-03-24T12:12:22.042Z,3.40
2019-03-24T12:14:54.190Z,2.80
2019-03-24T12:17:26.108Z,2.80
2019-03-24T12:19:57.992Z,2.70
2019-03-24T12:22:29.864Z,2.58
2019-03-24T12:26:55.074Z,3.10
2019-03-24T12:29:27.878Z,3.10
2019-03-24T12:32:01.954Z,3.47
2019-03-24T12:34:34.478Z,2.75
2019-03-24T12:37:07.090Z,2.70
2019-03-24T12:39:39.658Z,2.85
2019-03-24T12:42:12.077Z,2.65
2019-03-24T12:44:44.463Z,2.72
2019-03-24T12:47:16.895Z,3.40
2019-03-24T12:49:49.299Z,2.62
2019-03-24T12:52:21.736Z,3.17
2019-03-24T12:54:54.131Z,3.02
2019-03-24T12:57:26.526Z,2.92
2019-03-24T13:00:01.331Z,3.00
2019-03-24T13:02:34.501Z,3.00
2019-03-24T13:05:09.281Z,2.98
2019-03-24T13:07:41.714Z,3.20
2019-03-24T13:10:14.375Z,3.55
2019-03-24T13:12:46.782Z,2.55
2019-03-24T13:15:19.180Z,2.87
2019-03-24T13:17:51.693Z,2.60
2019-03-24T13:20:37.851Z,3.10
2019-03-24T13:22:58.186Z,3.05
2019-03-24T13:25:30.647Z,3.15
2019-03-24T13:28:03.062Z,2.67
2019-03-24T13:30:35.936Z,3.05
2019-03-24T13:33:08.372Z,2.35
2019-03-24T13:35:40.860Z,2.92
2019-03-24T13:38:13.700Z,2.60
2019-03-24T13:40:46.104Z,2.77
2019-03-24T13:43:18.499Z,2.87
2019-03-24T13:45:50.926Z,2.70
2019-03-24T13:48:23.339Z,3.25
2019-03-24T13:50:55.779Z,2.50
2019-03-24T13:53:28.324Z,2.90
2019-03-24T13:56:00.765Z,2.58
2019-03-24T13:58:33.992Z,2.65
2019-03-24T14:01:07.704Z,2.62
2019-03-24T14:03:44.181Z,3.00
2019-03-24T14:06:16.726Z,2.40
2019-03-24T14:08:49.576Z,2.37
2019-03-24T14:11:24.159Z,3.00
2019-03-24T14:13:56.109Z,2.47
2019-03-24T14:16:28.542Z,3.08
2019-03-24T14:19:01.051Z,2.45
2019-03-24T14:21:34.066Z,2.55
2019-03-24T14:24:06.730Z,2.67
2019-03-24T14:26:39.137Z,2.62
2019-03-24T14:29:11.536Z,3.33
2019-03-24T14:31:43.947Z,2.80
2019-03-24T14:34:16.379Z,2.67
2019-03-24T14:36:48.777Z,2.17
2019-03-24T14:39:21.302Z,2.95
2019-03-24T14:41:53.704Z,2.62
2019-03-24T14:44:26.223Z,2.40
2019-03-24T14:46:58.671Z,2.27
2019-03-24T14:49:31.267Z,2.60
2019-03-24T14:52:03.791Z,2.42
2019-03-24T14:54:36.204Z,2.27
2019-03-24T14:57:08.604Z,2.33
2019-03-24T14:59:41.009Z,2.92
2019-03-24T15:02:13.511Z,2.83
2019-03-24T15:04:46.030Z,2.22
2019-03-24T15:07:18.515Z,2.80
2019-03-24T15:09:50.903Z,2.58
2019-03-24T15:12:23.334Z,2.70
2019-03-24T15:14:55.719Z,2.80
2019-03-24T15:17:28.121Z,2.70
2019-03-24T15:20:00.658Z,2.67
2019-03-24T15:22:33.092Z,2.50
2019-03-24T15:25:05.872Z,2.30
2019-03-24T15:27:38.326Z,2.58
2019-03-24T15:30:12.127Z,2.42
2019-03-24T15:32:44.530Z,2.75
2019-03-24T15:35:16.983Z,2.70
2019-03-24T15:37:49.379Z,2.58
2019-03-24T15:40:22.139Z,2.62
2019-03-24T15:42:54.833Z,2.33
2019-03-24T15:45:27.255Z,2.30
2019-03-24T15:48:00.784Z,2.37
2019-03-24T15:50:34.316Z,2.50
2019-03-24T15:53:06.753Z,1.92
2019-03-24T15:55:39.139Z,2.45
2019-03-24T15:58:12.538Z,2.70
2019-03-24T16:00:50.141Z,2.42
2019-03-24T16:03:23.829Z,2.60
2019-03-24T16:05:56.616Z,2.10
2019-03-24T16:08:29.092Z,2.27
2019-03-24T16:11:01.480Z,2.42
2019-03-24T16:13:34.175Z,2.70
2019-03-24T16:16:06.740Z,2.70
2019-03-24T16:18:39.601Z,2.70
2019-03-24T16:21:12.076Z,2.70
2019-03-24T16:23:45.790Z,2.55
2019-03-24T16:26:18.235Z,2.35
2019-03-24T16:28:50.609Z,2.17
2019-03-24T16:31:23.089Z,2.17
2019-03-24T16:33:55.503Z,2.70
2019-03-24T16:36:27.964Z,2.33
2019-03-24T16:39:03.734Z,2.20
2019-03-24T16:41:36.094Z,2.98
2019-03-24T16:44:08.538Z,2.90
2019-03-24T16:46:41.012Z,2.55
2019-03-24T16:49:13.463Z,2.75
2019-03-24T16:51:46.461Z,2.42
2019-03-24T16:54:18.963Z,2.40
2019-03-24T16:56:51.373Z,3.02
2019-03-24T16:59:23.951Z,3.72
2019-03-24T17:01:59.028Z,3.55
2019-03-24T17:04:31.614Z,3.30
2019-03-24T17:07:04.240Z,3.35
2019-03-24T17:09:36.729Z,3.40
2019-03-24T17:12:09.343Z,3.10
2019-03-24T17:14:41.764Z,3.20
2019-03-24T17:17:15.526Z,2.75
2019-03-24T17:19:48.202Z,3.02
2019-03-24T17:22:20.804Z,2.52
2019-03-24T17:24:53.295Z,2.92
2019-03-24T17:27:26.382Z,2.65
2019-03-24T17:29:58.933Z,2.70
2019-03-24T17:32:31.482Z,2.92
2019-03-24T17:35:05.032Z,3.22
2019-03-24T17:37:37.842Z,2.72
2019-03-24T17:40:12.667Z,2.50
2019-03-24T17:42:46.069Z,2.65
2019-03-24T17:45:19.088Z,3.15
2019-03-24T17:47:52.170Z,2.70
2019-03-24T17:50:24.733Z,3.27
2019-03-24T17:52:57.256Z,3.08
2019-03-24T17:55:31.039Z,2.62
2019-03-24T17:58:06.043Z,2.50
2019-03-24T18:00:42.690Z,2.67
2019-03-24T18:03:15.266Z,3.33
2019-03-24T18:05:47.779Z,3.98
2019-03-24T18:08:22.232Z,3.37
2019-03-24T18:10:54.352Z,3.20
2019-03-24T18:13:26.845Z,3.05
2019-03-24T18:15:59.317Z,3.50
2019-03-24T18:18:33.885Z,3.10
2019-03-24T18:21:06.473Z,2.92
2019-03-24T18:23:38.998Z,2.70
2019-03-24T18:26:11.681Z,2.72
2019-03-24T18:28:44.207Z,2.92
2019-03-24T18:31:17.674Z,2.83
2019-03-24T18:33:50.780Z,3.58
2019-03-24T18:36:23.255Z,3.40
2019-03-24T18:38:55.840Z,3.27
2019-03-24T18:41:28.541Z,3.40
2019-03-24T18:44:02.272Z,3.37
2019-03-24T18:46:34.945Z,3.77
2019-03-24T18:49:10.846Z,4.15
2019-03-24T18:51:45.254Z,5.00
2019-03-24T18:54:17.969Z,4.10
2019-03-24T18:56:52.128Z,4.58
2019-03-24T18:59:25.226Z,4.30
2019-03-24T19:02:00.507Z,4.85
2019-03-24T19:04:33.430Z,5.08
2019-03-24T19:07:07.311Z,4.53
2019-03-24T19:09:42.652Z,4.22
2019-03-24T19:12:16.051Z,4.33
2019-03-24T19:14:48.780Z,4.80
2019-03-24T19:17:24.100Z,5.72
2019-03-24T19:19:59.559Z,6.25
2019-03-24T19:22:33.859Z,5.75
2019-03-24T19:25:05.849Z,4.05
2019-03-24T19:27:39.071Z,4.17
2019-03-24T19:30:13.068Z,4.47
2019-03-24T19:32:45.848Z,4.15
2019-03-24T19:35:19.809Z,4.95
2019-03-24T19:37:54.267Z,15.70
2019-03-24T19:40:28.716Z,13.72
2019-03-24T19:43:02.160Z,8.30
2019-03-24T19:45:35.024Z,4.45
2019-03-24T19:48:07.758Z,4.78
2019-03-24T19:50:40.426Z,6.12
2019-03-24T19:53:13.372Z,4.62
2019-03-24T19:55:46.355Z,6.15
2019-03-24T19:58:18.979Z,5.78
2019-03-24T20:00:51.671Z,6.17
2019-03-24T20:03:24.396Z,6.35
2019-03-24T20:05:57.438Z,5.03
2019-03-24T20:10:12.775Z,5.83
2019-03-24T20:12:45.783Z,6.67
2019-03-24T20:15:19.370Z,5.83
2019-03-24T20:17:52.203Z,4.92
2019-03-24T20:20:26.281Z,6.05
2019-03-24T20:22:59.128Z,5.20
2019-03-24T20:25:33.465Z,5.40
2019-03-24T20:28:07.358Z,7.85
2019-03-24T20:30:43.191Z,13.03
2019-03-24T20:33:16.133Z,6.92
2019-03-24T20:35:51.460Z,7.22
2019-03-24T20:38:24.357Z,8.23
2019-03-24T20:40:57.395Z,6.55
2019-03-24T20:43:30.483Z,6.95
2019-03-24T20:46:04.286Z,6.67
2019-03-24T20:48:37.888Z,7.72
2019-03-24T20:51:10.620Z,9.18
2019-03-24T20:53:43.507Z,9.48
2019-03-24T20:56:16.376Z,6.70
2019-03-24T20:58:49.200Z,6.05
2019-03-24T21:01:22.115Z,6.15
2019-03-24T21:03:55.035Z,7.65
2019-03-24T21:06:27.973Z,8.25
2019-03-24T21:09:02.919Z,8.25
2019-03-24T21:11:36.731Z,9.28
2019-03-24T21:14:10.825Z,10.45
2019-03-24T21:16:44.861Z,9.93
2019-03-24T21:19:18.760Z,9.38
2019-03-24T21:21:52.099Z,9.33
2019-03-24T21:24:25.052Z,9.90
2019-03-24T21:26:57.825Z,9.48
2019-03-24T21:29:31.553Z,9.20
2019-03-24T21:32:04.369Z,9.93
2019-03-24T21:34:38.524Z,9.00
2019-03-24T21:37:11.297Z,8.53
2019-03-24T21:39:44.267Z,8.98
2019-03-24T21:42:16.957Z,11.15
2019-03-24T21:44:51.449Z,8.75
2019-03-24T21:47:24.582Z,9.18
2019-03-24T21:50:00.104Z,7.92
2019-03-24T21:52:35.375Z,8.50
2019-03-24T21:55:08.843Z,8.63
2019-03-24T21:57:41.660Z,8.03
2019-03-24T22:00:14.764Z,8.23
2019-03-24T22:02:47.965Z,8.83
2019-03-24T22:05:24.318Z,7.50
2019-03-24T22:08:00.197Z,8.55
2019-03-24T22:10:36.136Z,9.78
2019-03-24T22:13:13.654Z,8.88
2019-03-24T22:15:46.565Z,8.68
2019-03-24T22:18:20.735Z,9.33
2019-03-24T22:20:53.577Z,9.75
2019-03-24T22:23:26.250Z,9.18
2019-03-24T22:25:58.873Z,10.25
2019-03-24T22:28:31.898Z,9.08
2019-03-24T22:31:04.602Z,9.70
2019-03-24T22:33:41.691Z,8.85
2019-03-24T22:36:16.460Z,10.08
2019-03-24T22:38:49.101Z,10.90
2019-03-24T22:41:21.777Z,9.53
2019-03-24T22:43:54.561Z,18.45
2019-03-24T22:46:27.234Z,13.00
2019-03-24T22:48:59.851Z,12.30
2019-03-24T22:51:34.357Z,10.30
2019-03-24T22:54:07.012Z,9.70
2019-03-24T22:56:39.971Z,10.00
2019-03-24T22:59:14.284Z,8.55
2019-03-24T23:01:47.529Z,10.70
2019-03-24T23:04:20.199Z,7.80
2019-03-24T23:06:52.815Z,7.22
2019-03-24T23:09:25.592Z,8.53
2019-03-24T23:11:58.199Z,8.20
2019-03-24T23:14:32.441Z,9.95
2019-03-24T23:17:06.966Z,9.00
2019-03-24T23:19:39.628Z,9.25
2019-03-24T23:22:12.321Z,9.55
2019-03-24T23:24:44.936Z,10.70
2019-03-24T23:27:17.584Z,10.38
2019-03-24T23:29:51.842Z,10.45
2019-03-24T23:32:24.520Z,10.75
2019-03-24T23:34:57.511Z,9.15
2019-03-24T23:37:30.739Z,9.80
2019-03-24T23:40:03.868Z,9.75
2019-03-24T23:42:36.587Z,10.18
2019-03-24T23:45:09.915Z,9.88
2019-03-24T23:47:42.598Z,10.30
2019-03-24T23:50:15.574Z,10.00
2019-03-24T23:52:48.285Z,9.30
2019-03-24T23:55:20.954Z,9.25
2019-03-24T23:57:55.455Z,8.80
